Portada
METAR-TAF:

METAR-TAF

Aeropuertos :

Ringkøbing-Skjern, Dinamarca

latitud: 56-00N, longitud: 008-21E, altitud: 5 m

Observación

El informe se hizo hace 11 horas y 20 minutos, a las 13:50 UTC
Viento 16 kt del suroeste
Temperatura 8°C
Humedad 87%
Presión 1008 hPa
Visibilidad 10 km o más
Nubes dispersas a una altura de 2500 ft
Cielo nuboso a una altura de 24000 ft

METAR: EKVJ 051350Z 22016KT 9999 SCT025 BKN240 08/06 Q1008

Hora: 02:10 (01:10 UTC)

Pronóstico

El informe se hizo hace 13 horas y 10 minutos, a las 12:00 UTC
Pronóstico válido del 05 a las 12 UTC al 05 a las 16 UTC
Viento 15 kt del suroeste
Visibilidad 10 km o más
Cielo nuboso a una altura de 2000 ft
Temporalmente
del 05 a las 12 UTC al 05 a las 16 UTC
Viento 18 kt del suroeste con ráfagas de 28 kt

TAF: EKVJ 051200Z 0512/0516 23015KT 9999 BKN020 TEMPO 0512/0516 23018G28KT

Observaciones y pronósticos meteorológicos de más de 4000 aeropuertos (mensajes METAR y TAF).

Los puntos amarillos y rojos representan las estaciones disponibles.

Ponga el ratón en el punto deseado para ver el nombre de la estación.

Haga clic para ver las observaciones y los pronósticos meteorológicos.

Para cambiar el mapa : haga clic en los botones verdes con una cruz de color negro para hacer un zoom, en el botón verde con un guión para alejar o en las flechas verdes para mapas adyacentes.


METAR-TAF: